createdAt,value
2022-08-29T00:01:12.998Z,2.47
2022-08-29T00:03:41.269Z,3.57
2022-08-29T00:06:10.699Z,3.67
2022-08-29T00:08:37.828Z,2.80
2022-08-29T00:11:06.798Z,3.00
2022-08-29T00:13:34.777Z,2.67
2022-08-29T00:16:01.958Z,2.70
2022-08-29T00:18:29.087Z,3.30
2022-08-29T00:20:56.426Z,3.23
2022-08-29T00:23:23.482Z,3.00
2022-08-29T00:25:50.489Z,2.63
2022-08-29T00:28:17.538Z,3.10
2022-08-29T00:30:44.856Z,3.00
2022-08-29T00:33:11.940Z,3.13
2022-08-29T00:35:41.257Z,2.60
2022-08-29T00:38:11.385Z,3.23
2022-08-29T00:40:50.373Z,3.20
2022-08-29T00:43:23.084Z,2.77
2022-08-29T00:45:54.132Z,2.90
2022-08-29T00:48:21.632Z,2.83
2022-08-29T00:50:59.244Z,3.33
2022-08-29T00:53:31.184Z,3.10
2022-08-29T00:55:59.134Z,3.27
2022-08-29T00:58:31.228Z,3.20
2022-08-29T01:00:58.401Z,3.20
2022-08-29T01:03:26.404Z,2.70
2022-08-29T01:05:53.693Z,3.03
2022-08-29T01:08:20.805Z,2.63
2022-08-29T01:11:06.661Z,3.03
2022-08-29T01:13:39.120Z,2.90
2022-08-29T01:16:08.232Z,3.33
2022-08-29T01:18:37.961Z,3.30
2022-08-29T01:21:05.381Z,3.30
2022-08-29T01:23:56.864Z,3.37
2022-08-29T01:26:30.150Z,2.93
2022-08-29T01:28:58.419Z,3.13
2022-08-29T01:31:46.877Z,3.30
2022-08-29T01:34:24.262Z,3.20
2022-08-29T01:36:55.789Z,2.97
2022-08-29T01:39:26.626Z,3.23
2022-08-29T01:41:54.416Z,3.47
2022-08-29T01:44:25.528Z,3.40
2022-08-29T01:46:59.157Z,3.50
2022-08-29T01:49:29.553Z,3.40
2022-08-29T01:51:56.843Z,3.20
2022-08-29T01:54:23.849Z,3.60
2022-08-29T01:56:52.679Z,3.70
2022-08-29T01:59:23.974Z,4.07
2022-08-29T02:01:57.213Z,3.90
2022-08-29T02:04:24.399Z,5.53
2022-08-29T02:06:52.654Z,5.10
2022-08-29T02:09:19.811Z,5.60
2022-08-29T02:11:47.947Z,4.47
2022-08-29T02:14:19.306Z,3.80
2022-08-29T02:16:48.342Z,3.23
2022-08-29T02:19:16.272Z,3.50
2022-08-29T02:21:44.485Z,3.20
2022-08-29T02:24:24.868Z,3.70
2022-08-29T02:26:54.001Z,4.03
2022-08-29T02:29:20.969Z,3.43
2022-08-29T02:31:48.790Z,3.50
2022-08-29T02:34:16.312Z,3.93
2022-08-29T02:36:44.673Z,3.90
2022-08-29T02:39:13.717Z,3.43
2022-08-29T02:41:41.157Z,3.83
2022-08-29T02:44:11.944Z,4.00
2022-08-29T02:46:39.258Z,4.13
2022-08-29T02:49:06.525Z,4.50
2022-08-29T02:51:34.961Z,4.23
2022-08-29T02:54:03.210Z,4.47
2022-08-29T02:56:30.486Z,4.27
2022-08-29T02:58:58.549Z,4.50
2022-08-29T03:01:26.362Z,5.03
2022-08-29T03:03:54.079Z,4.67
2022-08-29T03:06:21.442Z,5.00
2022-08-29T03:08:48.987Z,5.53
2022-08-29T03:11:17.258Z,5.33
2022-08-29T03:13:45.804Z,4.80
2022-08-29T03:16:13.643Z,4.87
2022-08-29T03:18:40.964Z,4.90
2022-08-29T03:21:20.391Z,4.53
2022-08-29T03:23:48.771Z,4.90
2022-08-29T03:26:16.121Z,5.43
2022-08-29T03:28:43.607Z,5.53
2022-08-29T03:31:10.984Z,5.37
2022-08-29T03:33:38.544Z,5.07
2022-08-29T03:36:07.007Z,4.57
2022-08-29T03:38:42.611Z,4.70
2022-08-29T03:41:10.006Z,5.00
2022-08-29T03:43:37.000Z,5.20
2022-08-29T03:46:04.497Z,4.60
2022-08-29T03:48:33.350Z,4.23
2022-08-29T03:51:00.511Z,4.80
2022-08-29T03:53:27.631Z,4.13
2022-08-29T03:55:54.921Z,5.23
2022-08-29T03:58:22.043Z,4.30
2022-08-29T04:00:49.059Z,4.73
2022-08-29T04:03:16.195Z,4.60
2022-08-29T04:05:43.407Z,5.50
2022-08-29T04:08:10.461Z,4.50
2022-08-29T04:10:39.034Z,4.60
2022-08-29T04:13:07.676Z,3.83
2022-08-29T04:15:35.912Z,3.67
2022-08-29T04:18:07.162Z,4.37
2022-08-29T04:20:37.708Z,4.20
2022-08-29T04:23:06.095Z,5.20
2022-08-29T04:25:37.405Z,4.73
2022-08-29T04:28:10.306Z,4.50
2022-08-29T04:30:38.716Z,5.00
2022-08-29T04:33:06.505Z,4.30
2022-08-29T04:35:34.970Z,4.40
2022-08-29T04:38:02.013Z,3.80
2022-08-29T04:40:29.092Z,4.70
2022-08-29T04:42:56.201Z,4.17
2022-08-29T04:45:23.857Z,3.80
2022-08-29T04:47:51.424Z,4.47
2022-08-29T04:50:21.841Z,4.23
2022-08-29T04:52:50.452Z,4.20
2022-08-29T04:55:21.731Z,4.83
2022-08-29T04:57:54.034Z,4.63
2022-08-29T05:00:23.527Z,4.37
2022-08-29T05:02:50.767Z,4.23
2022-08-29T05:05:18.004Z,4.13
2022-08-29T05:07:46.587Z,3.97
2022-08-29T05:10:17.365Z,4.43
2022-08-29T05:12:45.142Z,5.00
2022-08-29T05:15:14.039Z,4.57
2022-08-29T05:17:41.718Z,5.13
2022-08-29T05:20:09.732Z,4.93
2022-08-29T05:22:38.940Z,5.30
2022-08-29T05:25:06.784Z,4.93
2022-08-29T05:27:34.186Z,4.60
2022-08-29T05:30:02.391Z,3.90
2022-08-29T05:32:29.638Z,4.40
2022-08-29T05:34:57.686Z,5.30
2022-08-29T05:37:25.158Z,6.20
2022-08-29T05:39:52.494Z,7.37
2022-08-29T05:42:22.256Z,6.27
2022-08-29T05:44:49.859Z,6.80
2022-08-29T05:47:18.361Z,7.87
2022-08-29T05:49:47.169Z,8.80
2022-08-29T05:52:16.648Z,8.00
2022-08-29T05:54:44.409Z,8.23
2022-08-29T05:57:18.701Z,8.47
2022-08-29T05:59:49.912Z,8.73
2022-08-29T06:02:17.623Z,8.67
2022-08-29T06:04:45.409Z,10.03
2022-08-29T06:07:12.952Z,8.83
2022-08-29T06:09:41.232Z,7.80
2022-08-29T06:12:09.441Z,7.40
2022-08-29T06:14:36.634Z,7.43
2022-08-29T06:17:04.777Z,8.67
2022-08-29T06:19:34.949Z,8.40
2022-08-29T06:22:03.448Z,7.20
2022-08-29T06:24:38.512Z,7.43
2022-08-29T06:27:06.036Z,8.40
2022-08-29T06:29:41.684Z,8.87
2022-08-29T06:32:12.031Z,8.80
2022-08-29T06:34:39.269Z,8.90
2022-08-29T06:37:06.405Z,9.73
2022-08-29T06:39:33.462Z,10.27
2022-08-29T06:42:00.616Z,10.20
2022-08-29T06:44:30.967Z,8.93
2022-08-29T06:46:58.765Z,10.87
2022-08-29T06:49:26.101Z,10.43
2022-08-29T06:51:57.655Z,9.67
2022-08-29T06:54:28.560Z,9.80
2022-08-29T06:56:57.648Z,10.30
2022-08-29T06:59:25.056Z,9.57
2022-08-29T07:01:52.629Z,9.27
2022-08-29T07:04:20.972Z,9.37
2022-08-29T07:06:48.903Z,9.00
2022-08-29T07:09:16.296Z,8.33
2022-08-29T07:11:43.568Z,8.77
2022-08-29T07:14:12.102Z,8.20
2022-08-29T07:16:40.256Z,7.47
2022-08-29T07:19:08.951Z,7.77
2022-08-29T07:21:36.865Z,9.40
2022-08-29T07:24:04.676Z,9.07
2022-08-29T07:26:36.348Z,8.30
2022-08-29T07:29:09.229Z,8.00
2022-08-29T07:31:39.048Z,8.50
2022-08-29T07:34:06.725Z,8.87
2022-08-29T07:36:34.744Z,8.27
2022-08-29T07:39:04.633Z,8.90
2022-08-29T07:41:31.901Z,8.43
2022-08-29T07:43:59.017Z,9.00
2022-08-29T07:46:26.999Z,7.23
2022-08-29T07:48:54.400Z,7.57
2022-08-29T07:51:23.301Z,8.43
2022-08-29T07:53:51.572Z,8.20
2022-08-29T07:56:29.287Z,8.07
2022-08-29T07:58:57.892Z,7.37
2022-08-29T08:01:25.777Z,7.47
2022-08-29T08:03:53.796Z,7.10
2022-08-29T08:06:22.870Z,5.90
2022-08-29T08:08:50.991Z,6.00
2022-08-29T08:11:19.455Z,6.10
2022-08-29T08:13:46.949Z,6.67
2022-08-29T08:16:16.826Z,6.30
2022-08-29T08:18:44.487Z,6.43
2022-08-29T08:21:12.224Z,6.83
2022-08-29T08:23:40.426Z,6.13
2022-08-29T08:26:08.506Z,6.20
2022-08-29T08:28:35.614Z,6.80
2022-08-29T08:31:06.986Z,5.87
2022-08-29T08:33:35.599Z,8.40
2022-08-29T08:36:04.517Z,6.43
2022-08-29T08:38:31.765Z,7.43
2022-08-29T08:41:03.337Z,5.70
2022-08-29T08:43:49.659Z,7.37
2022-08-29T08:46:18.101Z,6.63
2022-08-29T08:48:47.599Z,6.03
2022-08-29T08:51:20.502Z,5.60
2022-08-29T08:53:50.784Z,4.90
2022-08-29T08:56:18.569Z,5.83
2022-08-29T08:58:55.289Z,5.77
2022-08-29T09:01:27.983Z,4.27
2022-08-29T09:04:27.226Z,4.83
2022-08-29T09:07:00.084Z,5.50
2022-08-29T09:09:38.954Z,6.23
2022-08-29T09:12:15.241Z,6.00
2022-08-29T09:15:23.504Z,4.30
2022-08-29T09:18:04.577Z,4.97
2022-08-29T09:20:35.128Z,5.20
2022-08-29T09:23:07.726Z,5.83
2022-08-29T09:25:36.426Z,5.40
2022-08-29T09:28:08.017Z,5.03
2022-08-29T09:30:37.537Z,4.37
2022-08-29T09:33:11.884Z,5.10
2022-08-29T09:35:48.982Z,5.00
2022-08-29T09:38:18.744Z,4.53
2022-08-29T09:40:52.695Z,3.80
2022-08-29T09:43:33.823Z,4.90
2022-08-29T09:46:17.979Z,4.63
2022-08-29T09:48:46.917Z,3.67
2022-08-29T09:51:23.162Z,3.77
2022-08-29T09:53:51.829Z,3.37
2022-08-29T09:56:27.792Z,3.93
2022-08-29T09:59:04.169Z,3.13
2022-08-29T10:01:32.814Z,3.37
2022-08-29T10:04:06.533Z,3.73
2022-08-29T10:06:45.069Z,3.73
2022-08-29T10:09:27.465Z,3.60
2022-08-29T10:12:03.584Z,3.37
2022-08-29T10:14:49.891Z,4.17
2022-08-29T10:17:45.584Z,3.53
2022-08-29T10:20:12.741Z,3.33
2022-08-29T10:22:44.525Z,4.20
2022-08-29T10:25:20.951Z,3.90
2022-08-29T10:28:08.144Z,4.00
2022-08-29T10:30:54.207Z,4.30
2022-08-29T10:33:42.897Z,4.33
2022-08-29T10:36:22.564Z,4.57
2022-08-29T10:38:59.695Z,4.40
2022-08-29T10:41:38.676Z,4.00
2022-08-29T10:47:16.885Z,3.87
2022-08-29T10:50:02.436Z,4.90
2022-08-29T10:52:41.510Z,4.23
2022-08-29T10:55:08.536Z,4.57
2022-08-29T10:58:06.638Z,4.07
2022-08-29T11:01:05.582Z,4.23
2022-08-29T11:03:47.469Z,3.90
2022-08-29T11:06:22.627Z,3.47
2022-08-29T11:09:03.732Z,4.17
2022-08-29T11:11:33.184Z,4.80
2022-08-29T11:14:31.501Z,4.07
2022-08-29T11:17:03.201Z,4.37
2022-08-29T11:20:09.672Z,3.90
2022-08-29T11:22:43.691Z,4.10
2022-08-29T11:25:13.930Z,3.93
2022-08-29T11:27:53.685Z,4.00
2022-08-29T11:30:33.444Z,3.53
2022-08-29T11:33:40.517Z,3.77
2022-08-29T11:36:35.239Z,4.00
2022-08-29T11:39:20.285Z,4.17
2022-08-29T11:41:58.448Z,3.57
2022-08-29T11:44:28.707Z,3.80
2022-08-29T11:46:57.029Z,3.67
2022-08-29T11:49:30.058Z,3.43
2022-08-29T11:52:01.093Z,3.57
2022-08-29T11:54:37.286Z,3.80
2022-08-29T11:57:04.397Z,3.63
2022-08-29T11:59:49.507Z,4.03
2022-08-29T12:02:28.812Z,3.80
2022-08-29T12:05:00.412Z,3.87
2022-08-29T12:07:50.677Z,3.40
2022-08-29T12:10:20.815Z,3.57
2022-08-29T12:12:51.282Z,3.53
2022-08-29T12:15:27.617Z,3.73
2022-08-29T12:18:09.769Z,3.77
2022-08-29T12:20:45.316Z,3.80
2022-08-29T12:23:15.424Z,3.50
2022-08-29T12:25:45.069Z,3.77
2022-08-29T12:28:21.109Z,3.90
2022-08-29T12:30:51.670Z,3.70
2022-08-29T12:33:46.045Z,4.20
2022-08-29T12:36:37.825Z,3.67
2022-08-29T12:39:42.014Z,4.03
2022-08-29T12:42:29.964Z,3.77
2022-08-29T12:45:02.193Z,3.70
2022-08-29T12:47:38.052Z,4.10
2022-08-29T12:50:15.683Z,3.37
2022-08-29T12:52:42.706Z,3.47
2022-08-29T12:55:20.920Z,3.60
2022-08-29T12:57:48.430Z,3.90
2022-08-29T13:00:26.037Z,3.87
2022-08-29T13:03:04.751Z,3.97
2022-08-29T13:05:39.750Z,3.90
2022-08-29T13:08:37.216Z,3.90
2022-08-29T13:11:07.411Z,3.67
2022-08-29T13:13:34.977Z,4.03
2022-08-29T13:16:05.253Z,3.50
2022-08-29T13:18:44.324Z,3.77
2022-08-29T13:21:32.276Z,3.40
2022-08-29T13:24:09.430Z,3.40
2022-08-29T13:26:43.425Z,3.50
2022-08-29T13:29:38.710Z,3.57
2022-08-29T13:32:23.456Z,3.40
2022-08-29T13:35:14.459Z,3.73
2022-08-29T13:37:44.913Z,3.50
2022-08-29T13:40:33.126Z,3.43
2022-08-29T13:43:01.651Z,3.40
2022-08-29T13:45:29.079Z,3.77
2022-08-29T13:48:01.958Z,3.23
2022-08-29T13:50:30.179Z,3.60
2022-08-29T13:52:58.524Z,3.40
2022-08-29T13:55:25.852Z,3.37
2022-08-29T13:57:54.432Z,3.87
2022-08-29T14:00:25.475Z,3.60
2022-08-29T14:03:04.006Z,2.80
2022-08-29T14:05:31.575Z,3.17
2022-08-29T14:07:58.812Z,3.17
2022-08-29T14:10:25.829Z,2.87
2022-08-29T14:12:52.903Z,3.53
2022-08-29T14:15:21.154Z,3.37
2022-08-29T14:17:48.928Z,2.80
2022-08-29T14:20:17.658Z,3.30
2022-08-29T14:22:45.562Z,3.33
2022-08-29T14:25:14.985Z,2.77
2022-08-29T14:27:43.555Z,3.30
2022-08-29T14:30:13.771Z,3.37
2022-08-29T14:32:40.844Z,3.10
2022-08-29T14:35:08.878Z,3.20
2022-08-29T14:37:36.563Z,3.40
2022-08-29T14:40:09.498Z,3.87
2022-08-29T14:42:38.867Z,3.57
2022-08-29T14:45:08.146Z,3.13
2022-08-29T14:47:35.445Z,3.07
2022-08-29T14:50:02.677Z,3.37
2022-08-29T14:52:29.753Z,3.20
2022-08-29T14:54:56.802Z,3.47
2022-08-29T14:57:24.052Z,3.37
2022-08-29T14:59:51.158Z,3.40
2022-08-29T15:02:20.166Z,3.30
2022-08-29T15:04:50.016Z,3.03
2022-08-29T15:07:18.285Z,2.77
2022-08-29T15:09:46.043Z,2.90
2022-08-29T15:12:15.693Z,2.70
2022-08-29T15:14:42.721Z,3.07
2022-08-29T15:17:10.294Z,3.40
2022-08-29T15:20:24.263Z,3.10
2022-08-29T15:22:25.631Z,3.50
2022-08-29T15:24:53.026Z,3.20
2022-08-29T15:27:26.873Z,3.37
2022-08-29T15:29:55.150Z,2.97
2022-08-29T15:32:22.496Z,3.47
2022-08-29T15:34:49.537Z,2.83
2022-08-29T15:37:17.084Z,2.67
2022-08-29T15:39:44.264Z,3.03
2022-08-29T15:42:12.199Z,2.90
2022-08-29T15:44:44.615Z,2.90
2022-08-29T15:47:11.951Z,3.57
2022-08-29T15:49:39.664Z,3.60
2022-08-29T15:52:07.021Z,3.37
2022-08-29T15:54:35.531Z,3.10
2022-08-29T15:57:02.541Z,3.60
2022-08-29T15:59:54.218Z,3.23
2022-08-29T16:02:17.366Z,3.77
2022-08-29T16:04:47.556Z,3.47
2022-08-29T16:07:15.793Z,3.10
2022-08-29T16:09:42.912Z,3.20
2022-08-29T16:12:11.326Z,3.40
2022-08-29T16:14:58.503Z,3.50
2022-08-29T16:17:29.777Z,3.30
2022-08-29T16:19:58.170Z,3.10
2022-08-29T16:22:26.116Z,3.10
2022-08-29T16:24:53.596Z,3.23
2022-08-29T16:27:24.089Z,2.90
2022-08-29T16:29:54.912Z,3.00
2022-08-29T16:32:21.969Z,2.77
2022-08-29T16:34:49.241Z,2.90
2022-08-29T16:37:16.347Z,2.87
2022-08-29T16:39:43.647Z,2.97
2022-08-29T16:42:13.544Z,3.07
2022-08-29T16:44:41.572Z,3.37
2022-08-29T16:47:11.125Z,2.90
2022-08-29T16:49:38.243Z,3.33
2022-08-29T16:52:06.256Z,3.30
2022-08-29T16:54:33.386Z,3.30
2022-08-29T16:57:00.421Z,3.17
2022-08-29T16:59:27.495Z,3.07
2022-08-29T17:01:54.755Z,3.53
2022-08-29T17:04:25.336Z,3.03
2022-08-29T17:06:53.031Z,3.20
2022-08-29T17:09:23.170Z,3.50
2022-08-29T17:11:52.192Z,3.20
2022-08-29T17:14:20.812Z,2.87
2022-08-29T17:16:51.513Z,3.10
2022-08-29T17:19:19.236Z,3.10
2022-08-29T17:21:47.861Z,2.93
2022-08-29T17:24:15.343Z,3.53
2022-08-29T17:26:45.666Z,3.23
2022-08-29T17:29:13.110Z,2.93
2022-08-29T17:31:40.142Z,2.67
2022-08-29T17:34:08.519Z,3.03
2022-08-29T17:36:36.951Z,3.03
2022-08-29T17:39:05.876Z,3.07
2022-08-29T17:41:34.871Z,3.60
2022-08-29T17:44:02.268Z,3.00
2022-08-29T17:46:29.817Z,2.93
2022-08-29T17:48:57.190Z,3.40
2022-08-29T17:51:24.661Z,3.57
2022-08-29T17:53:52.634Z,3.33
2022-08-29T17:56:29.500Z,3.40
2022-08-29T17:58:57.621Z,3.23
2022-08-29T18:01:24.727Z,3.40
2022-08-29T18:03:52.051Z,3.50
2022-08-29T18:06:19.426Z,3.47
2022-08-29T18:08:47.935Z,3.30
2022-08-29T18:11:16.638Z,3.67
2022-08-29T18:13:44.479Z,3.83
2022-08-29T18:16:12.335Z,3.77
2022-08-29T18:18:39.653Z,4.20
2022-08-29T18:21:07.279Z,4.17
2022-08-29T18:23:35.080Z,4.47
2022-08-29T18:26:03.372Z,4.23
2022-08-29T18:28:30.409Z,5.00
2022-08-29T18:30:58.720Z,4.90
2022-08-29T18:33:38.842Z,5.00
2022-08-29T18:36:12.460Z,4.97
2022-08-29T18:38:39.756Z,5.17
2022-08-29T18:41:06.803Z,4.40
2022-08-29T18:43:34.447Z,5.07
2022-08-29T18:46:06.047Z,5.40
2022-08-29T18:48:33.337Z,5.37
2022-08-29T18:51:00.486Z,5.50
2022-08-29T18:53:31.565Z,5.90
2022-08-29T18:56:00.250Z,6.03
2022-08-29T18:58:30.583Z,5.90
2022-08-29T19:00:59.976Z,6.20
2022-08-29T19:03:27.114Z,5.60
2022-08-29T19:05:54.225Z,5.80
2022-08-29T19:08:24.710Z,5.40
2022-08-29T19:10:55.401Z,7.17
2022-08-29T19:13:25.420Z,7.03
2022-08-29T19:15:56.724Z,7.47
2022-08-29T19:18:23.914Z,5.90
2022-08-29T19:21:02.872Z,8.30
2022-08-29T19:23:42.310Z,6.70
2022-08-29T19:26:17.288Z,7.17
2022-08-29T19:28:45.440Z,7.67
2022-08-29T19:31:14.423Z,7.00
2022-08-29T19:33:42.093Z,6.87
2022-08-29T19:36:10.090Z,7.43
2022-08-29T19:38:38.242Z,6.53
2022-08-29T19:41:05.747Z,7.73
2022-08-29T19:43:34.118Z,7.73
2022-08-29T19:46:02.383Z,7.40
2022-08-29T19:48:29.565Z,7.83
2022-08-29T19:50:57.109Z,7.93
2022-08-29T19:53:26.858Z,6.90
2022-08-29T19:55:57.024Z,7.70
2022-08-29T19:58:32.034Z,8.57
2022-08-29T20:01:04.564Z,7.77
2022-08-29T20:03:40.472Z,7.60
2022-08-29T20:06:08.054Z,8.43
2022-08-29T20:08:45.498Z,8.10
2022-08-29T20:11:14.304Z,8.13
2022-08-29T20:13:47.547Z,7.23
2022-08-29T20:16:19.001Z,8.07
2022-08-29T20:18:46.549Z,7.90
2022-08-29T20:21:16.391Z,7.13
2022-08-29T20:23:49.902Z,8.07
2022-08-29T20:26:20.559Z,8.50
2022-08-29T20:28:49.511Z,8.10
2022-08-29T20:31:16.770Z,8.00
2022-08-29T20:33:44.933Z,8.90
2022-08-29T20:36:30.921Z,8.77
2022-08-29T20:38:58.086Z,8.57
2022-08-29T20:41:25.093Z,9.10
2022-08-29T20:43:52.119Z,8.63
2022-08-29T20:46:19.169Z,8.80
2022-08-29T20:48:46.292Z,8.20
2022-08-29T20:51:13.438Z,8.57
2022-08-29T20:53:40.757Z,7.70
2022-08-29T20:56:08.334Z,9.00
2022-08-29T20:58:35.718Z,7.93
2022-08-29T21:01:03.209Z,8.23
2022-08-29T21:03:48.578Z,8.33
2022-08-29T21:06:18.972Z,8.67
2022-08-29T21:08:46.106Z,8.77
2022-08-29T21:11:14.435Z,9.03
2022-08-29T21:13:43.384Z,8.97
2022-08-29T21:16:11.630Z,8.97
2022-08-29T21:18:39.217Z,9.10
2022-08-29T21:21:06.632Z,9.97
2022-08-29T21:23:34.361Z,8.83
2022-08-29T21:26:02.335Z,9.27
2022-08-29T21:28:32.849Z,10.10
2022-08-29T21:31:08.709Z,9.80
2022-08-29T21:33:44.485Z,10.00
2022-08-29T21:36:18.751Z,10.37
2022-08-29T21:38:50.651Z,10.70
2022-08-29T21:41:18.047Z,10.13
2022-08-29T21:43:45.095Z,10.07
2022-08-29T21:46:21.257Z,11.07
2022-08-29T21:48:55.828Z,11.50
2022-08-29T21:51:24.316Z,11.63
2022-08-29T21:53:52.798Z,12.10
2022-08-29T21:56:20.026Z,11.20
2022-08-29T21:58:52.677Z,12.50
2022-08-29T22:01:27.306Z,11.43
2022-08-29T22:03:55.245Z,10.70
2022-08-29T22:06:23.395Z,11.57
2022-08-29T22:08:55.580Z,12.37
2022-08-29T22:11:37.238Z,11.30
2022-08-29T22:14:07.469Z,11.00
2022-08-29T22:16:35.828Z,12.23
2022-08-29T22:19:08.856Z,11.90
2022-08-29T22:21:48.117Z,11.80
2022-08-29T22:24:17.076Z,12.07
2022-08-29T22:26:45.598Z,11.87
2022-08-29T22:29:14.202Z,12.00
2022-08-29T22:31:42.558Z,11.67
2022-08-29T22:34:11.299Z,12.13
2022-08-29T22:36:38.445Z,10.73
2022-08-29T22:39:05.676Z,11.73
2022-08-29T22:41:33.944Z,12.00
2022-08-29T22:44:52.657Z,12.73
2022-08-29T22:46:49.085Z,11.40
2022-08-29T22:49:16.174Z,12.97
2022-08-29T22:51:43.170Z,11.30
2022-08-29T22:54:28.664Z,13.13
2022-08-29T22:56:55.668Z,12.43
2022-08-29T22:59:22.762Z,12.67
2022-08-29T23:01:49.915Z,12.93
2022-08-29T23:04:17.371Z,12.00
2022-08-29T23:06:44.555Z,12.57
2022-08-29T23:09:12.975Z,12.90
2022-08-29T23:11:40.409Z,12.63
2022-08-29T23:14:08.311Z,11.40
2022-08-29T23:16:40.205Z,11.80
2022-08-29T23:19:07.367Z,11.77
2022-08-29T23:21:35.661Z,12.17
2022-08-29T23:24:07.620Z,11.17
2022-08-29T23:26:35.369Z,11.10
2022-08-29T23:29:02.933Z,12.83
2022-08-29T23:31:30.264Z,12.93
2022-08-29T23:33:57.379Z,12.40
2022-08-29T23:36:24.481Z,11.67
2022-08-29T23:38:52.730Z,11.77
2022-08-29T23:41:20.349Z,12.67
2022-08-29T23:43:47.428Z,12.43
2022-08-29T23:46:14.935Z,13.00
2022-08-29T23:48:42.121Z,12.50
2022-08-29T23:51:11.069Z,12.17
2022-08-29T23:53:38.706Z,11.07
2022-08-29T23:56:20.242Z,11.73
2022-08-29T23:58:47.651Z,15.23
